sensor_id;sensor_type;location;lat;lon;timestamp;P1;durP1;ratioP1;P2;durP2;ratioP2
7471;SDS011;3777;48.722;8.110;2024-03-02T00:01:05;15.20;;;9.60;;
7471;SDS011;3777;48.722;8.110;2024-03-02T00:03:32;16.20;;;10.10;;
7471;SDS011;3777;48.722;8.110;2024-03-02T00:05:59;15.30;;;9.40;;
7471;SDS011;3777;48.722;8.110;2024-03-02T00:08:28;18.33;;;9.83;;
7471;SDS011;3777;48.722;8.110;2024-03-02T00:10:57;17.77;;;9.40;;
7471;SDS011;3777;48.722;8.110;2024-03-02T00:13:25;16.33;;;9.50;;
7471;SDS011;3777;48.722;8.110;2024-03-02T00:15:52;16.37;;;9.73;;
7471;SDS011;3777;48.722;8.110;2024-03-02T00:18:21;13.23;;;8.93;;
7471;SDS011;3777;48.722;8.110;2024-03-02T00:20:52;11.70;;;7.47;;
7471;SDS011;3777;48.722;8.110;2024-03-02T00:23:20;13.10;;;8.10;;
7471;SDS011;3777;48.722;8.110;2024-03-02T00:25:49;13.20;;;8.50;;
7471;SDS011;3777;48.722;8.110;2024-03-02T00:28:19;12.50;;;8.30;;
7471;SDS011;3777;48.722;8.110;2024-03-02T00:30:52;15.07;;;8.90;;
7471;SDS011;3777;48.722;8.110;2024-03-02T00:33:22;10.77;;;7.67;;
7471;SDS011;3777;48.722;8.110;2024-03-02T00:35:50;9.37;;;7.67;;
7471;SDS011;3777;48.722;8.110;2024-03-02T00:38:17;11.97;;;8.03;;
7471;SDS011;3777;48.722;8.110;2024-03-02T00:40:44;9.77;;;6.83;;
7471;SDS011;3777;48.722;8.110;2024-03-02T00:43:18;9.77;;;6.97;;
7471;SDS011;3777;48.722;8.110;2024-03-02T00:46:05;10.37;;;7.27;;
7471;SDS011;3777;48.722;8.110;2024-03-02T00:48:32;9.93;;;7.17;;
7471;SDS011;3777;48.722;8.110;2024-03-02T00:51:00;8.70;;;6.67;;
7471;SDS011;3777;48.722;8.110;2024-03-02T00:53:28;9.17;;;6.97;;
7471;SDS011;3777;48.722;8.110;2024-03-02T00:55:57;9.73;;;5.93;;
7471;SDS011;3777;48.722;8.110;2024-03-02T00:58:26;10.93;;;7.53;;
7471;SDS011;3777;48.722;8.110;2024-03-02T01:00:53;8.20;;;5.40;;
7471;SDS011;3777;48.722;8.110;2024-03-02T01:03:20;8.13;;;6.10;;
7471;SDS011;3777;48.722;8.110;2024-03-02T01:05:47;7.40;;;5.50;;
7471;SDS011;3777;48.722;8.110;2024-03-02T01:08:14;6.53;;;5.83;;
7471;SDS011;3777;48.722;8.110;2024-03-02T01:10:41;7.73;;;5.93;;
7471;SDS011;3777;48.722;8.110;2024-03-02T01:13:08;7.17;;;6.27;;
7471;SDS011;3777;48.722;8.110;2024-03-02T01:15:37;8.70;;;6.50;;
7471;SDS011;3777;48.722;8.110;2024-03-02T01:18:04;6.83;;;6.00;;
7471;SDS011;3777;48.722;8.110;2024-03-02T01:20:31;6.37;;;5.60;;
7471;SDS011;3777;48.722;8.110;2024-03-02T01:22:57;6.83;;;5.87;;
7471;SDS011;3777;48.722;8.110;2024-03-02T01:25:24;5.57;;;4.93;;
7471;SDS011;3777;48.722;8.110;2024-03-02T01:27:51;6.70;;;4.67;;
7471;SDS011;3777;48.722;8.110;2024-03-02T01:30:18;6.73;;;4.80;;
7471;SDS011;3777;48.722;8.110;2024-03-02T01:32:46;7.33;;;5.40;;
7471;SDS011;3777;48.722;8.110;2024-03-02T01:35:13;6.07;;;4.97;;
7471;SDS011;3777;48.722;8.110;2024-03-02T01:37:41;6.60;;;4.93;;
7471;SDS011;3777;48.722;8.110;2024-03-02T01:40:08;6.03;;;4.70;;
7471;SDS011;3777;48.722;8.110;2024-03-02T01:42:36;6.67;;;4.97;;
7471;SDS011;3777;48.722;8.110;2024-03-02T01:45:04;5.27;;;4.77;;
7471;SDS011;3777;48.722;8.110;2024-03-02T01:47:32;7.50;;;5.27;;
7471;SDS011;3777;48.722;8.110;2024-03-02T01:50:01;5.40;;;4.90;;
7471;SDS011;3777;48.722;8.110;2024-03-02T01:52:28;5.20;;;4.70;;
7471;SDS011;3777;48.722;8.110;2024-03-02T01:54:55;5.10;;;4.53;;
7471;SDS011;3777;48.722;8.110;2024-03-02T01:57:22;5.97;;;5.10;;
7471;SDS011;3777;48.722;8.110;2024-03-02T01:59:49;5.73;;;4.90;;
7471;SDS011;3777;48.722;8.110;2024-03-02T02:02:16;5.30;;;4.80;;
7471;SDS011;3777;48.722;8.110;2024-03-02T02:04:43;6.50;;;4.87;;
7471;SDS011;3777;48.722;8.110;2024-03-02T02:07:12;5.13;;;4.27;;
7471;SDS011;3777;48.722;8.110;2024-03-02T02:09:40;6.40;;;4.70;;
7471;SDS011;3777;48.722;8.110;2024-03-02T02:12:07;5.23;;;4.50;;
7471;SDS011;3777;48.722;8.110;2024-03-02T02:14:34;5.10;;;4.40;;
7471;SDS011;3777;48.722;8.110;2024-03-02T02:17:01;4.97;;;4.47;;
7471;SDS011;3777;48.722;8.110;2024-03-02T02:19:27;6.20;;;4.37;;
7471;SDS011;3777;48.722;8.110;2024-03-02T02:21:56;5.10;;;4.60;;
7471;SDS011;3777;48.722;8.110;2024-03-02T02:24:23;6.33;;;5.00;;
7471;SDS011;3777;48.722;8.110;2024-03-02T02:26:50;5.20;;;4.27;;
7471;SDS011;3777;48.722;8.110;2024-03-02T02:29:17;5.27;;;4.43;;
7471;SDS011;3777;48.722;8.110;2024-03-02T02:31:44;5.10;;;4.20;;
7471;SDS011;3777;48.722;8.110;2024-03-02T02:34:11;7.43;;;5.03;;
7471;SDS011;3777;48.722;8.110;2024-03-02T02:36:38;5.33;;;4.80;;
7471;SDS011;3777;48.722;8.110;2024-03-02T02:39:07;5.33;;;4.67;;
7471;SDS011;3777;48.722;8.110;2024-03-02T02:41:37;5.10;;;4.43;;
7471;SDS011;3777;48.722;8.110;2024-03-02T02:44:04;5.83;;;4.53;;
7471;SDS011;3777;48.722;8.110;2024-03-02T02:46:31;6.17;;;4.60;;
7471;SDS011;3777;48.722;8.110;2024-03-02T02:48:58;5.27;;;4.60;;
7471;SDS011;3777;48.722;8.110;2024-03-02T02:51:25;7.73;;;5.40;;
7471;SDS011;3777;48.722;8.110;2024-03-02T02:53:52;11.33;;;5.87;;
7471;SDS011;3777;48.722;8.110;2024-03-02T02:56:20;14.73;;;7.17;;
7471;SDS011;3777;48.722;8.110;2024-03-02T02:58:47;10.60;;;6.10;;
7471;SDS011;3777;48.722;8.110;2024-03-02T03:01:14;13.17;;;7.10;;
7471;SDS011;3777;48.722;8.110;2024-03-02T03:03:43;13.73;;;6.97;;
7471;SDS011;3777;48.722;8.110;2024-03-02T03:06:10;14.83;;;7.47;;
7471;SDS011;3777;48.722;8.110;2024-03-02T03:08:37;8.80;;;5.60;;
7471;SDS011;3777;48.722;8.110;2024-03-02T03:11:04;6.07;;;4.60;;
7471;SDS011;3777;48.722;8.110;2024-03-02T03:13:33;6.60;;;4.90;;
7471;SDS011;3777;48.722;8.110;2024-03-02T03:16:00;6.23;;;4.73;;
7471;SDS011;3777;48.722;8.110;2024-03-02T03:18:28;5.60;;;4.70;;
7471;SDS011;3777;48.722;8.110;2024-03-02T03:20:55;6.00;;;4.80;;
7471;SDS011;3777;48.722;8.110;2024-03-02T03:23:22;6.47;;;5.00;;
7471;SDS011;3777;48.722;8.110;2024-03-02T03:25:49;7.77;;;5.17;;
7471;SDS011;3777;48.722;8.110;2024-03-02T03:28:16;9.13;;;5.90;;
7471;SDS011;3777;48.722;8.110;2024-03-02T03:30:44;10.80;;;6.30;;
7471;SDS011;3777;48.722;8.110;2024-03-02T03:33:11;9.33;;;5.77;;
7471;SDS011;3777;48.722;8.110;2024-03-02T03:35:38;7.57;;;5.23;;
7471;SDS011;3777;48.722;8.110;2024-03-02T03:38:05;8.17;;;5.50;;
7471;SDS011;3777;48.722;8.110;2024-03-02T03:40:32;9.57;;;6.00;;
7471;SDS011;3777;48.722;8.110;2024-03-02T03:42:59;9.27;;;5.03;;
7471;SDS011;3777;48.722;8.110;2024-03-02T03:45:26;7.47;;;5.03;;
7471;SDS011;3777;48.722;8.110;2024-03-02T03:47:54;9.47;;;5.40;;
7471;SDS011;3777;48.722;8.110;2024-03-02T03:50:21;7.17;;;5.43;;
7471;SDS011;3777;48.722;8.110;2024-03-02T03:52:48;7.13;;;5.13;;
7471;SDS011;3777;48.722;8.110;2024-03-02T03:55:15;6.93;;;5.37;;
7471;SDS011;3777;48.722;8.110;2024-03-02T03:57:42;10.00;;;5.57;;
7471;SDS011;3777;48.722;8.110;2024-03-02T04:00:09;7.03;;;5.57;;
7471;SDS011;3777;48.722;8.110;2024-03-02T04:02:37;10.20;;;6.60;;
7471;SDS011;3777;48.722;8.110;2024-03-02T04:05:06;8.17;;;5.37;;
7471;SDS011;3777;48.722;8.110;2024-03-02T04:07:35;7.57;;;6.13;;
7471;SDS011;3777;48.722;8.110;2024-03-02T04:10:08;5.83;;;5.20;;
7471;SDS011;3777;48.722;8.110;2024-03-02T04:12:37;9.97;;;5.93;;
7471;SDS011;3777;48.722;8.110;2024-03-02T04:15:05;7.17;;;5.70;;
7471;SDS011;3777;48.722;8.110;2024-03-02T04:17:32;9.43;;;6.23;;
7471;SDS011;3777;48.722;8.110;2024-03-02T04:20:01;9.03;;;6.50;;
7471;SDS011;3777;48.722;8.110;2024-03-02T04:22:32;8.20;;;6.40;;
7471;SDS011;3777;48.722;8.110;2024-03-02T04:25:00;9.83;;;6.30;;
7471;SDS011;3777;48.722;8.110;2024-03-02T04:27:29;6.83;;;6.03;;
7471;SDS011;3777;48.722;8.110;2024-03-02T04:29:57;7.97;;;6.07;;
7471;SDS011;3777;48.722;8.110;2024-03-02T04:32:25;10.37;;;6.30;;
7471;SDS011;3777;48.722;8.110;2024-03-02T04:34:52;8.03;;;6.20;;
7471;SDS011;3777;48.722;8.110;2024-03-02T04:37:19;7.30;;;6.00;;
7471;SDS011;3777;48.722;8.110;2024-03-02T04:39:47;12.00;;;6.83;;
7471;SDS011;3777;48.722;8.110;2024-03-02T04:42:14;7.93;;;6.10;;
7471;SDS011;3777;48.722;8.110;2024-03-02T04:44:41;8.33;;;5.53;;
7471;SDS011;3777;48.722;8.110;2024-03-02T04:47:08;9.70;;;6.60;;
7471;SDS011;3777;48.722;8.110;2024-03-02T04:49:35;11.10;;;6.37;;
7471;SDS011;3777;48.722;8.110;2024-03-02T04:52:03;9.00;;;5.83;;
7471;SDS011;3777;48.722;8.110;2024-03-02T04:54:30;9.10;;;5.83;;
7471;SDS011;3777;48.722;8.110;2024-03-02T04:56:58;9.23;;;5.30;;
7471;SDS011;3777;48.722;8.110;2024-03-02T04:59:24;9.27;;;5.37;;
7471;SDS011;3777;48.722;8.110;2024-03-02T05:01:51;7.67;;;5.33;;
7471;SDS011;3777;48.722;8.110;2024-03-02T05:04:18;8.73;;;5.23;;
7471;SDS011;3777;48.722;8.110;2024-03-02T05:06:46;8.03;;;4.90;;
7471;SDS011;3777;48.722;8.110;2024-03-02T05:09:17;8.33;;;5.03;;
7471;SDS011;3777;48.722;8.110;2024-03-02T05:11:44;7.53;;;4.53;;
7471;SDS011;3777;48.722;8.110;2024-03-02T05:14:26;7.80;;;4.63;;
7471;SDS011;3777;48.722;8.110;2024-03-02T05:16:54;8.03;;;5.10;;
7471;SDS011;3777;48.722;8.110;2024-03-02T05:19:20;10.17;;;5.73;;
7471;SDS011;3777;48.722;8.110;2024-03-02T05:21:47;13.03;;;5.63;;
7471;SDS011;3777;48.722;8.110;2024-03-02T05:24:15;8.53;;;5.00;;
7471;SDS011;3777;48.722;8.110;2024-03-02T05:26:42;5.00;;;3.97;;
7471;SDS011;3777;48.722;8.110;2024-03-02T05:29:09;8.13;;;4.50;;
7471;SDS011;3777;48.722;8.110;2024-03-02T05:31:37;5.57;;;4.30;;
7471;SDS011;3777;48.722;8.110;2024-03-02T05:34:04;5.83;;;4.47;;
7471;SDS011;3777;48.722;8.110;2024-03-02T05:36:31;6.23;;;4.37;;
7471;SDS011;3777;48.722;8.110;2024-03-02T05:38:58;7.63;;;4.63;;
7471;SDS011;3777;48.722;8.110;2024-03-02T05:41:25;6.93;;;4.40;;
7471;SDS011;3777;48.722;8.110;2024-03-02T05:43:52;7.47;;;4.20;;
7471;SDS011;3777;48.722;8.110;2024-03-02T05:46:19;4.83;;;3.50;;
7471;SDS011;3777;48.722;8.110;2024-03-02T05:48:48;4.37;;;3.80;;
7471;SDS011;3777;48.722;8.110;2024-03-02T05:51:15;6.53;;;3.90;;
7471;SDS011;3777;48.722;8.110;2024-03-02T05:53:42;6.37;;;4.07;;
7471;SDS011;3777;48.722;8.110;2024-03-02T05:56:09;4.37;;;3.70;;
7471;SDS011;3777;48.722;8.110;2024-03-02T05:58:37;5.33;;;3.57;;
7471;SDS011;3777;48.722;8.110;2024-03-02T06:01:18;4.87;;;3.97;;
7471;SDS011;3777;48.722;8.110;2024-03-02T06:03:45;7.53;;;5.10;;
7471;SDS011;3777;48.722;8.110;2024-03-02T06:06:13;5.40;;;4.57;;
7471;SDS011;3777;48.722;8.110;2024-03-02T06:08:41;7.47;;;4.83;;
7471;SDS011;3777;48.722;8.110;2024-03-02T06:11:08;6.47;;;4.20;;
7471;SDS011;3777;48.722;8.110;2024-03-02T06:13:35;6.77;;;4.20;;
7471;SDS011;3777;48.722;8.110;2024-03-02T06:16:02;4.43;;;3.93;;
7471;SDS011;3777;48.722;8.110;2024-03-02T06:18:29;6.70;;;4.43;;
7471;SDS011;3777;48.722;8.110;2024-03-02T06:20:56;5.07;;;4.13;;
7471;SDS011;3777;48.722;8.110;2024-03-02T06:23:24;4.83;;;4.10;;
7471;SDS011;3777;48.722;8.110;2024-03-02T06:25:51;5.80;;;4.00;;
7471;SDS011;3777;48.722;8.110;2024-03-02T06:28:18;5.73;;;4.33;;
7471;SDS011;3777;48.722;8.110;2024-03-02T06:30:45;5.37;;;4.17;;
7471;SDS011;3777;48.722;8.110;2024-03-02T06:33:12;5.40;;;4.23;;
7471;SDS011;3777;48.722;8.110;2024-03-02T06:35:40;5.53;;;4.17;;
7471;SDS011;3777;48.722;8.110;2024-03-02T06:38:07;5.20;;;4.27;;
7471;SDS011;3777;48.722;8.110;2024-03-02T06:40:35;6.13;;;4.70;;
7471;SDS011;3777;48.722;8.110;2024-03-02T06:43:03;6.00;;;4.10;;
7471;SDS011;3777;48.722;8.110;2024-03-02T06:45:30;4.97;;;4.20;;
7471;SDS011;3777;48.722;8.110;2024-03-02T06:47:59;4.27;;;3.80;;
7471;SDS011;3777;48.722;8.110;2024-03-02T06:50:26;4.47;;;4.00;;
7471;SDS011;3777;48.722;8.110;2024-03-02T06:52:53;4.20;;;3.80;;
7471;SDS011;3777;48.722;8.110;2024-03-02T06:55:21;5.67;;;4.53;;
7471;SDS011;3777;48.722;8.110;2024-03-02T06:57:50;5.37;;;4.77;;
7471;SDS011;3777;48.722;8.110;2024-03-02T07:00:18;4.83;;;4.30;;
7471;SDS011;3777;48.722;8.110;2024-03-02T07:02:46;4.23;;;3.80;;
7471;SDS011;3777;48.722;8.110;2024-03-02T07:05:13;4.97;;;3.67;;
7471;SDS011;3777;48.722;8.110;2024-03-02T07:07:41;4.07;;;3.60;;
7471;SDS011;3777;48.722;8.110;2024-03-02T07:10:08;4.40;;;3.77;;
7471;SDS011;3777;48.722;8.110;2024-03-02T07:12:35;4.40;;;3.53;;
7471;SDS011;3777;48.722;8.110;2024-03-02T07:15:04;4.00;;;3.60;;
7471;SDS011;3777;48.722;8.110;2024-03-02T07:17:54;5.17;;;3.67;;
7471;SDS011;3777;48.722;8.110;2024-03-02T07:20:21;4.33;;;3.60;;
7471;SDS011;3777;48.722;8.110;2024-03-02T07:22:48;4.77;;;3.50;;
7471;SDS011;3777;48.722;8.110;2024-03-02T07:25:15;10.07;;;6.53;;
7471;SDS011;3777;48.722;8.110;2024-03-02T07:27:42;7.67;;;6.17;;
7471;SDS011;3777;48.722;8.110;2024-03-02T07:30:13;11.90;;;8.77;;
7471;SDS011;3777;48.722;8.110;2024-03-02T07:32:41;12.07;;;7.90;;
7471;SDS011;3777;48.722;8.110;2024-03-02T07:35:11;7.47;;;6.17;;
7471;SDS011;3777;48.722;8.110;2024-03-02T07:37:39;6.20;;;5.23;;
7471;SDS011;3777;48.722;8.110;2024-03-02T07:40:07;5.10;;;4.43;;
7471;SDS011;3777;48.722;8.110;2024-03-02T07:42:37;7.03;;;4.60;;
7471;SDS011;3777;48.722;8.110;2024-03-02T07:45:05;7.10;;;4.50;;
7471;SDS011;3777;48.722;8.110;2024-03-02T07:47:48;10.43;;;5.07;;
7471;SDS011;3777;48.722;8.110;2024-03-02T07:50:16;5.20;;;4.03;;
7471;SDS011;3777;48.722;8.110;2024-03-02T07:52:43;7.67;;;5.30;;
7471;SDS011;3777;48.722;8.110;2024-03-02T07:55:10;6.57;;;5.40;;
7471;SDS011;3777;48.722;8.110;2024-03-02T07:57:37;8.60;;;6.40;;
7471;SDS011;3777;48.722;8.110;2024-03-02T08:00:05;9.23;;;5.30;;
7471;SDS011;3777;48.722;8.110;2024-03-02T08:02:32;6.10;;;4.30;;
7471;SDS011;3777;48.722;8.110;2024-03-02T08:05:01;5.73;;;4.60;;
7471;SDS011;3777;48.722;8.110;2024-03-02T08:07:28;5.30;;;4.20;;
7471;SDS011;3777;48.722;8.110;2024-03-02T08:09:55;5.03;;;3.97;;
7471;SDS011;3777;48.722;8.110;2024-03-02T08:12:22;5.73;;;4.97;;
7471;SDS011;3777;48.722;8.110;2024-03-02T08:14:49;8.10;;;5.90;;
7471;SDS011;3777;48.722;8.110;2024-03-02T08:17:16;6.43;;;5.67;;
7471;SDS011;3777;48.722;8.110;2024-03-02T08:19:43;4.83;;;4.33;;
7471;SDS011;3777;48.722;8.110;2024-03-02T08:22:12;7.33;;;5.40;;
7471;SDS011;3777;48.722;8.110;2024-03-02T08:24:40;7.10;;;5.60;;
7471;SDS011;3777;48.722;8.110;2024-03-02T08:27:07;6.20;;;5.23;;
7471;SDS011;3777;48.722;8.110;2024-03-02T08:29:34;6.53;;;5.40;;
7471;SDS011;3777;48.722;8.110;2024-03-02T08:32:01;6.20;;;4.93;;
7471;SDS011;3777;48.722;8.110;2024-03-02T08:34:28;5.43;;;4.30;;
7471;SDS011;3777;48.722;8.110;2024-03-02T08:36:55;4.83;;;4.30;;
7471;SDS011;3777;48.722;8.110;2024-03-02T08:39:24;5.23;;;4.47;;
7471;SDS011;3777;48.722;8.110;2024-03-02T08:41:51;4.63;;;3.97;;
7471;SDS011;3777;48.722;8.110;2024-03-02T08:44:18;4.57;;;4.03;;
7471;SDS011;3777;48.722;8.110;2024-03-02T08:46:46;4.60;;;4.10;;
7471;SDS011;3777;48.722;8.110;2024-03-02T08:49:13;4.53;;;3.80;;
7471;SDS011;3777;48.722;8.110;2024-03-02T08:51:40;6.60;;;5.30;;
7471;SDS011;3777;48.722;8.110;2024-03-02T08:54:08;4.60;;;4.07;;
7471;SDS011;3777;48.722;8.110;2024-03-02T08:56:36;4.73;;;4.20;;
7471;SDS011;3777;48.722;8.110;2024-03-02T08:59:03;5.27;;;4.43;;
7471;SDS011;3777;48.722;8.110;2024-03-02T09:01:30;5.07;;;4.40;;
7471;SDS011;3777;48.722;8.110;2024-03-02T09:03:57;5.03;;;4.40;;
7471;SDS011;3777;48.722;8.110;2024-03-02T09:06:24;6.53;;;4.97;;
7471;SDS011;3777;48.722;8.110;2024-03-02T09:08:51;5.30;;;4.53;;
7471;SDS011;3777;48.722;8.110;2024-03-02T09:11:18;5.00;;;4.40;;
7471;SDS011;3777;48.722;8.110;2024-03-02T09:13:46;5.00;;;4.00;;
7471;SDS011;3777;48.722;8.110;2024-03-02T09:16:13;4.43;;;4.00;;
7471;SDS011;3777;48.722;8.110;2024-03-02T09:18:40;4.67;;;3.67;;
7471;SDS011;3777;48.722;8.110;2024-03-02T09:21:07;3.30;;;3.00;;
7471;SDS011;3777;48.722;8.110;2024-03-02T09:23:35;5.07;;;3.70;;
7471;SDS011;3777;48.722;8.110;2024-03-02T09:26:03;3.87;;;3.20;;
7471;SDS011;3777;48.722;8.110;2024-03-02T09:28:30;6.47;;;4.00;;
7471;SDS011;3777;48.722;8.110;2024-03-02T09:30:57;4.30;;;3.90;;
7471;SDS011;3777;48.722;8.110;2024-03-02T09:33:24;5.47;;;3.90;;
7471;SDS011;3777;48.722;8.110;2024-03-02T09:35:51;4.93;;;4.13;;
7471;SDS011;3777;48.722;8.110;2024-03-02T09:38:18;4.40;;;4.00;;
7471;SDS011;3777;48.722;8.110;2024-03-02T09:40:45;4.50;;;3.90;;
7471;SDS011;3777;48.722;8.110;2024-03-02T09:43:12;4.43;;;4.03;;
7471;SDS011;3777;48.722;8.110;2024-03-02T09:45:39;4.37;;;3.97;;
7471;SDS011;3777;48.722;8.110;2024-03-02T09:48:08;5.17;;;4.27;;
7471;SDS011;3777;48.722;8.110;2024-03-02T09:50:35;5.13;;;4.53;;
7471;SDS011;3777;48.722;8.110;2024-03-02T09:53:02;5.67;;;4.30;;
7471;SDS011;3777;48.722;8.110;2024-03-02T09:55:30;5.13;;;4.20;;
7471;SDS011;3777;48.722;8.110;2024-03-02T09:57:57;5.70;;;4.27;;
7471;SDS011;3777;48.722;8.110;2024-03-02T10:00:24;4.73;;;3.93;;
7471;SDS011;3777;48.722;8.110;2024-03-02T10:02:51;4.23;;;3.83;;
7471;SDS011;3777;48.722;8.110;2024-03-02T10:05:26;4.80;;;4.23;;
7471;SDS011;3777;48.722;8.110;2024-03-02T10:07:59;5.23;;;4.27;;
7471;SDS011;3777;48.722;8.110;2024-03-02T10:10:34;4.57;;;3.73;;
7471;SDS011;3777;48.722;8.110;2024-03-02T10:13:05;4.60;;;3.53;;
7471;SDS011;3777;48.722;8.110;2024-03-02T10:15:34;4.03;;;3.50;;
7471;SDS011;3777;48.722;8.110;2024-03-02T10:18:02;4.93;;;4.10;;
7471;SDS011;3777;48.722;8.110;2024-03-02T10:20:31;5.05;;;4.13;;
7471;SDS011;3777;48.722;8.110;2024-03-02T10:23:09;5.95;;;4.32;;
7471;SDS011;3777;48.722;8.110;2024-03-02T10:25:36;4.32;;;3.85;;
7471;SDS011;3777;48.722;8.110;2024-03-02T10:28:03;4.80;;;3.45;;
7471;SDS011;3777;48.722;8.110;2024-03-02T10:30:31;7.38;;;3.55;;
7471;SDS011;3777;48.722;8.110;2024-03-02T10:32:59;3.85;;;3.45;;
7471;SDS011;3777;48.722;8.110;2024-03-02T10:35:28;3.60;;;3.20;;
7471;SDS011;3777;48.722;8.110;2024-03-02T10:37:57;3.97;;;3.53;;
7471;SDS011;3777;48.722;8.110;2024-03-02T10:40:26;4.72;;;3.35;;
7471;SDS011;3777;48.722;8.110;2024-03-02T10:42:53;3.42;;;2.90;;
7471;SDS011;3777;48.722;8.110;2024-03-02T10:45:20;3.20;;;2.90;;
7471;SDS011;3777;48.722;8.110;2024-03-02T10:47:48;3.58;;;2.90;;
7471;SDS011;3777;48.722;8.110;2024-03-02T10:50:16;3.10;;;2.72;;
7471;SDS011;3777;48.722;8.110;2024-03-02T10:52:43;3.20;;;2.90;;
7471;SDS011;3777;48.722;8.110;2024-03-02T10:55:12;3.58;;;2.70;;
7471;SDS011;3777;48.722;8.110;2024-03-02T10:57:41;4.63;;;2.75;;
7471;SDS011;3777;48.722;8.110;2024-03-02T11:00:11;4.07;;;3.13;;
7471;SDS011;3777;48.722;8.110;2024-03-02T11:02:42;3.42;;;2.50;;
7471;SDS011;3777;48.722;8.110;2024-03-02T11:05:13;2.33;;;2.10;;
7471;SDS011;3777;48.722;8.110;2024-03-02T11:07:45;3.45;;;2.20;;
7471;SDS011;3777;48.722;8.110;2024-03-02T11:10:15;3.53;;;2.35;;
7471;SDS011;3777;48.722;8.110;2024-03-02T11:12:43;2.50;;;2.22;;
7471;SDS011;3777;48.722;8.110;2024-03-02T11:15:17;2.50;;;2.30;;
7471;SDS011;3777;48.722;8.110;2024-03-02T11:17:45;2.50;;;2.22;;
7471;SDS011;3777;48.722;8.110;2024-03-02T11:20:13;2.70;;;2.30;;
7471;SDS011;3777;48.722;8.110;2024-03-02T11:22:44;2.80;;;2.20;;
7471;SDS011;3777;48.722;8.110;2024-03-02T11:25:24;2.85;;;1.80;;
7471;SDS011;3777;48.722;8.110;2024-03-02T11:28:01;2.15;;;1.80;;
7471;SDS011;3777;48.722;8.110;2024-03-02T11:33:24;2.70;;;1.60;;
7471;SDS011;3777;48.722;8.110;2024-03-02T11:35:52;1.65;;;1.55;;
7471;SDS011;3777;48.722;8.110;2024-03-02T11:38:19;2.33;;;1.50;;
7471;SDS011;3777;48.722;8.110;2024-03-02T11:40:47;1.73;;;1.60;;
7471;SDS011;3777;48.722;8.110;2024-03-02T11:43:15;1.48;;;1.38;;
7471;SDS011;3777;48.722;8.110;2024-03-02T11:45:42;1.52;;;1.33;;
7471;SDS011;3777;48.722;8.110;2024-03-02T11:48:11;1.50;;;1.30;;
7471;SDS011;3777;48.722;8.110;2024-03-02T11:50:40;2.03;;;1.42;;
7471;SDS011;3777;48.722;8.110;2024-03-02T11:53:09;2.08;;;1.60;;
7471;SDS011;3777;48.722;8.110;2024-03-02T11:55:38;1.67;;;1.45;;
7471;SDS011;3777;48.722;8.110;2024-03-02T11:58:07;1.48;;;1.35;;
7471;SDS011;3777;48.722;8.110;2024-03-02T12:00:35;1.40;;;1.30;;
7471;SDS011;3777;48.722;8.110;2024-03-02T12:03:03;1.58;;;1.48;;
7471;SDS011;3777;48.722;8.110;2024-03-02T12:05:33;1.63;;;1.52;;
7471;SDS011;3777;48.722;8.110;2024-03-02T12:08:01;1.65;;;1.50;;
7471;SDS011;3777;48.722;8.110;2024-03-02T12:10:30;2.00;;;1.73;;
7471;SDS011;3777;48.722;8.110;2024-03-02T12:12:57;1.70;;;1.60;;
7471;SDS011;3777;48.722;8.110;2024-03-02T12:15:27;1.80;;;1.40;;
7471;SDS011;3777;48.722;8.110;2024-03-02T12:17:56;1.40;;;1.30;;
7471;SDS011;3777;48.722;8.110;2024-03-02T12:20:25;2.07;;;1.50;;
7471;SDS011;3777;48.722;8.110;2024-03-02T12:22:54;2.70;;;1.80;;
7471;SDS011;3777;48.722;8.110;2024-03-02T12:25:22;1.50;;;1.40;;
7471;SDS011;3777;48.722;8.110;2024-03-02T12:27:50;1.90;;;1.70;;
7471;SDS011;3777;48.722;8.110;2024-03-02T12:30:20;2.10;;;1.53;;
7471;SDS011;3777;48.722;8.110;2024-03-02T12:32:48;1.97;;;1.80;;
7471;SDS011;3777;48.722;8.110;2024-03-02T12:35:17;1.97;;;1.60;;
7471;SDS011;3777;48.722;8.110;2024-03-02T12:37:45;2.20;;;1.70;;
7471;SDS011;3777;48.722;8.110;2024-03-02T12:40:13;1.73;;;1.63;;
7471;SDS011;3777;48.722;8.110;2024-03-02T12:42:42;2.60;;;1.87;;
7471;SDS011;3777;48.722;8.110;2024-03-02T12:45:10;2.03;;;1.70;;
7471;SDS011;3777;48.722;8.110;2024-03-02T12:47:38;2.07;;;1.70;;
7471;SDS011;3777;48.722;8.110;2024-03-02T12:50:08;2.30;;;1.40;;
7471;SDS011;3777;48.722;8.110;2024-03-02T12:52:36;3.37;;;1.70;;
7471;SDS011;3777;48.722;8.110;2024-03-02T12:55:06;1.70;;;1.50;;
7471;SDS011;3777;48.722;8.110;2024-03-02T12:57:33;2.60;;;1.70;;
7471;SDS011;3777;48.722;8.110;2024-03-02T13:00:00;1.70;;;1.60;;
7471;SDS011;3777;48.722;8.110;2024-03-02T13:02:34;2.40;;;1.70;;
7471;SDS011;3777;48.722;8.110;2024-03-02T13:05:02;1.93;;;1.63;;
7471;SDS011;3777;48.722;8.110;2024-03-02T13:07:31;1.90;;;1.60;;
7471;SDS011;3777;48.722;8.110;2024-03-02T13:09:59;2.00;;;1.60;;
7471;SDS011;3777;48.722;8.110;2024-03-02T13:12:26;1.63;;;1.53;;
7471;SDS011;3777;48.722;8.110;2024-03-02T13:14:53;1.80;;;1.50;;
7471;SDS011;3777;48.722;8.110;2024-03-02T13:17:20;1.83;;;1.63;;
7471;SDS011;3777;48.722;8.110;2024-03-02T13:19:51;1.80;;;1.70;;
7471;SDS011;3777;48.722;8.110;2024-03-02T13:22:19;2.43;;;1.77;;
7471;SDS011;3777;48.722;8.110;2024-03-02T13:24:47;2.00;;;1.80;;
7471;SDS011;3777;48.722;8.110;2024-03-02T13:27:14;1.60;;;1.50;;
7471;SDS011;3777;48.722;8.110;2024-03-02T13:29:44;1.87;;;1.63;;
7471;SDS011;3777;48.722;8.110;2024-03-02T13:32:12;3.00;;;1.60;;
7471;SDS011;3777;48.722;8.110;2024-03-02T13:34:39;1.73;;;1.50;;
7471;SDS011;3777;48.722;8.110;2024-03-02T13:37:06;2.00;;;1.60;;
7471;SDS011;3777;48.722;8.110;2024-03-02T13:39:33;1.53;;;1.43;;
7471;SDS011;3777;48.722;8.110;2024-03-02T13:42:06;3.07;;;1.90;;
7471;SDS011;3777;48.722;8.110;2024-03-02T13:44:34;1.70;;;1.60;;
7471;SDS011;3777;48.722;8.110;2024-03-02T13:47:01;1.70;;;1.60;;
7471;SDS011;3777;48.722;8.110;2024-03-02T13:49:29;1.70;;;1.60;;
7471;SDS011;3777;48.722;8.110;2024-03-02T13:52:00;2.20;;;1.60;;
7471;SDS011;3777;48.722;8.110;2024-03-02T13:54:36;1.70;;;1.47;;
7471;SDS011;3777;48.722;8.110;2024-03-02T13:57:03;1.80;;;1.47;;
7471;SDS011;3777;48.722;8.110;2024-03-02T13:59:32;1.50;;;1.40;;
7471;SDS011;3777;48.722;8.110;2024-03-02T14:02:00;1.80;;;1.40;;
7471;SDS011;3777;48.722;8.110;2024-03-02T14:04:27;1.57;;;1.47;;
7471;SDS011;3777;48.722;8.110;2024-03-02T14:06:54;1.77;;;1.50;;
7471;SDS011;3777;48.722;8.110;2024-03-02T14:09:21;2.40;;;1.90;;
7471;SDS011;3777;48.722;8.110;2024-03-02T14:11:49;2.07;;;1.53;;
7471;SDS011;3777;48.722;8.110;2024-03-02T14:14:16;1.70;;;1.50;;
7471;SDS011;3777;48.722;8.110;2024-03-02T14:16:45;1.87;;;1.60;;
7471;SDS011;3777;48.722;8.110;2024-03-02T14:19:12;2.50;;;1.73;;
7471;SDS011;3777;48.722;8.110;2024-03-02T14:21:39;2.77;;;1.50;;
7471;SDS011;3777;48.722;8.110;2024-03-02T14:24:06;2.30;;;1.73;;
7471;SDS011;3777;48.722;8.110;2024-03-02T14:26:34;1.60;;;1.43;;
7471;SDS011;3777;48.722;8.110;2024-03-02T14:29:01;1.40;;;1.30;;
7471;SDS011;3777;48.722;8.110;2024-03-02T14:31:28;1.60;;;1.50;;
7471;SDS011;3777;48.722;8.110;2024-03-02T14:33:57;2.23;;;1.73;;
7471;SDS011;3777;48.722;8.110;2024-03-02T14:36:24;2.53;;;1.60;;
7471;SDS011;3777;48.722;8.110;2024-03-02T14:38:52;1.63;;;1.40;;
7471;SDS011;3777;48.722;8.110;2024-03-02T14:41:20;2.57;;;1.43;;
7471;SDS011;3777;48.722;8.110;2024-03-02T14:43:48;2.00;;;1.63;;
7471;SDS011;3777;48.722;8.110;2024-03-02T14:46:15;1.93;;;1.40;;
7471;SDS011;3777;48.722;8.110;2024-03-02T14:48:43;2.57;;;1.73;;
7471;SDS011;3777;48.722;8.110;2024-03-02T14:51:13;2.13;;;1.50;;
7471;SDS011;3777;48.722;8.110;2024-03-02T14:53:40;1.50;;;1.40;;
7471;SDS011;3777;48.722;8.110;2024-03-02T14:56:07;1.70;;;1.50;;
7471;SDS011;3777;48.722;8.110;2024-03-02T14:58:34;2.80;;;1.73;;
7471;SDS011;3777;48.722;8.110;2024-03-02T15:01:02;2.90;;;1.60;;
7471;SDS011;3777;48.722;8.110;2024-03-02T15:03:31;1.83;;;1.50;;
7471;SDS011;3777;48.722;8.110;2024-03-02T15:05:58;2.03;;;1.80;;
7471;SDS011;3777;48.722;8.110;2024-03-02T15:08:26;2.90;;;1.87;;
7471;SDS011;3777;48.722;8.110;2024-03-02T15:10:53;2.73;;;1.50;;
7471;SDS011;3777;48.722;8.110;2024-03-02T15:13:22;1.60;;;1.50;;
7471;SDS011;3777;48.722;8.110;2024-03-02T15:15:50;1.90;;;1.67;;
7471;SDS011;3777;48.722;8.110;2024-03-02T15:18:17;3.67;;;2.40;;
7471;SDS011;3777;48.722;8.110;2024-03-02T15:20:44;1.73;;;1.50;;
7471;SDS011;3777;48.722;8.110;2024-03-02T15:23:11;1.90;;;1.70;;